Robyn J — WTQ4065 — position and weather

sailwx.info

Track history (hours):
 
Tides and Currents Weather Stations Pressure Air Temp Water Temp Dewpoint Dewpoint Depression Visibility Wind Speed Wind Dir Waves Ship Positions

Robyn J

Owner: JANKOVICH, TOM J, SAN PEDRO, CA. More information available from US FCC via Universal Licensing System and Coast Guard Vessel Documentation Center.

Last reported at 2018-Jul-20 10:30 UTC. Time now 2018-Jul-20 10:51 UTC.
Position N 33°44' W 118°17'.

Length 36 m; draft 3 m.

Type: Tug. MMSI: 367006770.

Date/timePositionNaut miles runAvg speedWind from/ knotsBaromVisibWave heightAir tempDewpointWater temp
2018-Jul-20 10:30N 33°44' W 118°17'0 0.0
2018-Jul-20 10:00N 33°44' W 118°17'0 0.0
2018-Jul-20 09:31N 33°44' W 118°17'0 0.0
2018-Jul-20 09:00N 33°44' W 118°17'0 0.0
2018-Jul-20 08:30N 33°44' W 118°17'0 0.0
2018-Jul-20 07:59N 33°44' W 118°17'0 0.0
2018-Jul-20 07:30N 33°44' W 118°17'0 0.0
2018-Jul-20 07:00N 33°44' W 118°17'0 0.0
2018-Jul-20 06:30N 33°44' W 118°17'0 0.0
2018-Jul-20 06:00N 33°44' W 118°17'0 0.0
2018-Jul-20 05:31N 33°44' W 118°17'0 0.0
2018-Jul-20 05:00N 33°44' W 118°17'0 0.3
2018-Jul-20 04:30N 33°44' W 118°16'2 3.8
2018-Jul-20 04:01N 33°42' W 118°15'3 6.4
2018-Jul-20 03:30N 33°39' W 118°14'3 6.8
2018-Jul-20 03:00N 33°36' W 118°14'4 7.5
2018-Jul-20 02:30N 33°32' W 118°15'4 7.5
2018-Jul-20 01:58N 33°28' W 118°15'4 7.7
2018-Jul-20 01:30N 33°25' W 118°16'5 8.2
2018-Jul-20 00:57N 33°20' W 118°16'7 8.0
2018-Jul-20 00:02N 33°13' W 118°20'1 8.6
2018-Jul-19 23:59N 33°13' W 118°20'5 8.3
2018-Jul-19 23:26N 33°10' W 118°24'6 7.6
2018-Jul-19 22:36N 33°05' W 118°29'2 8.1
2018-Jul-19 22:23N 33°04' W 118°30'3 7.7
2018-Jul-19 21:58N 33°01' W 118°33'1 1.9
2018-Jul-19 21:30N 33°00' W 118°33'0 0.1
2018-Jul-19 20:58N 33°00' W 118°33'0 0.1
2018-Jul-19 20:02N 33°00' W 118°33'0 0.0
2018-Jul-19 19:59N 33°00' W 118°33'0 0.0
2018-Jul-19 16:43N 33°00' W 118°33'0 0.1
2018-Jul-19 16:19N 33°00' W 118°33'0 0.1
2018-Jul-19 15:47N 33°00' W 118°33'0 0.0
2018-Jul-19 15:18N 33°00' W 118°33'0 0.0
2018-Jul-19 15:01N 33°00' W 118°33'3 3.3
2018-Jul-19 14:01N 33°03' W 118°31'4 7.0
2018-Jul-19 13:29N 33°06' W 118°29'3 6.9
2018-Jul-19 13:01N 33°09' W 118°27'3 6.6
2018-Jul-19 12:31N 33°11' W 118°24'3 6.6
2018-Jul-19 12:00N 33°14' W 118°21'3 6.4
2018-Jul-19 11:30N 33°16' W 118°19'3 6.4
2018-Jul-19 11:01N 33°19' W 118°17'3 6.7
2018-Jul-19 10:31N 33°22' W 118°17'3 6.7
2018-Jul-19 10:01N 33°26' W 118°17'4 6.9
2018-Jul-19 09:29N 33°29' W 118°16'3 6.9
2018-Jul-19 09:00N 33°33' W 118°15'4 7.1
2018-Jul-19 08:30N 33°36' W 118°15'4 7.3
2018-Jul-19 08:00N 33°40' W 118°15'3 6.8
2018-Jul-19 07:30N 33°43' W 118°14'2 4.3
2018-Jul-19 07:00N 33°45' W 118°13'0 0.3
2018-Jul-19 06:29N 33°45' W 118°13'0 0.0
2018-Jul-19 06:00N 33°45' W 118°13'0 0.9
2018-Jul-19 05:30N 33°44' W 118°12'3 6.9
2018-Jul-19 05:00N 33°44' W 118°16'0 0.6
2018-Jul-19 04:30N 33°44' W 118°16'1 1.7
2018-Jul-19 04:01N 33°43' W 118°16'1 1.1
2018-Jul-19 03:30N 33°44' W 118°16'0 0.0
2018-Jul-19 03:00N 33°44' W 118°16'1 2.8
2018-Jul-19 02:30N 33°42' W 118°15'5 9.1
2018-Jul-19 02:01N 33°40' W 118°10'5 9.0
2018-Jul-19 01:30N 33°36' W 118°08'5 9.2
2018-Jul-19 01:00N 33°32' W 118°05'5 9.4
2018-Jul-19 00:30N 33°28' W 118°02'5 9.7
2018-Jul-19 00:01N 33°24' W 117°58'5 9.5
2018-Jul-18 23:30N 33°20' W 117°55'5 9.5
2018-Jul-18 23:00N 33°17' W 117°51'5 9.5
2018-Jul-18 22:31N 33°13' W 117°47'5 9.6
2018-Jul-18 22:01N 33°09' W 117°44'5 9.9
2018-Jul-18 21:31N 33°06' W 117°40'510.1
2018-Jul-18 21:00N 33°02' W 117°36'510.1
2018-Jul-18 20:31N 32°58' W 117°33'5 9.9
2018-Jul-18 20:01N 32°54' W 117°29'5 9.7
2018-Jul-18 19:30N 32°49' W 117°26'5 9.6
2018-Jul-18 19:00N 32°46' W 117°23'5 9.4
2018-Jul-18 18:30N 32°42' W 117°19'4 8.9
2018-Jul-18 18:00N 32°38' W 117°16'3 5.7
2018-Jul-18 17:30N 32°41' W 117°14'4 1.7
2018-Jul-18 15:09N 32°41' W 117°09'1 5.6
2018-Jul-18 14:59N 32°42' W 117°10'2 5.1
2018-Jul-18 14:30N 32°43' W 117°12'3 3.2
2018-Jul-18 13:30N 32°40' W 117°14'2 4.4
2018-Jul-18 13:00N 32°38' W 117°13'2 4.7
2018-Jul-18 12:31N 32°37' W 117°16'3 5.6
2018-Jul-18 12:00N 32°39' W 117°19'3 5.4
2018-Jul-18 11:31N 32°41' W 117°21'5 5.0
2018-Jul-18 10:30N 32°45' W 117°25'2 4.7
2018-Jul-18 10:01N 32°47' W 117°26'2 4.7
2018-Jul-18 09:30N 32°48' W 117°28'2 4.6
2018-Jul-18 09:01N 32°50' W 117°30'2 4.5
2018-Jul-18 08:30N 32°52' W 117°32'2 4.6
2018-Jul-18 08:01N 32°53' W 117°34'2 4.6
2018-Jul-18 07:31N 32°55' W 117°36'2 4.9
2018-Jul-18 07:01N 32°57' W 117°38'2 5.0
2018-Jul-18 06:31N 32°59' W 117°40'3 5.0
2018-Jul-18 06:01N 33°01' W 117°41'2 4.8
2018-Jul-18 05:30N 33°03' W 117°43'2 4.9
2018-Jul-18 05:01N 33°05' W 117°45'2 4.9
2018-Jul-18 04:31N 33°07' W 117°46'3 5.1
2018-Jul-18 04:00N 33°09' W 117°48'3 5.1
2018-Jul-18 03:30N 33°11' W 117°49'3 5.1
2018-Jul-18 03:01N 33°13' W 117°51'3 5.3
2018-Jul-18 02:30N 33°16' W 117°53'3 5.2
2018-Jul-18 02:00N 33°18' W 117°54'3 5.3
2018-Jul-18 01:31N 33°20' W 117°56'3 5.4
2018-Jul-18 01:00N 33°22' W 117°58'3 5.4
2018-Jul-18 00:30N 33°25' W 117°59'3 5.3
2018-Jul-17 23:59N 33°27' W 118°01'4 5.3
2018-Jul-17 23:15N 33°31' W 118°03'1 5.5
2018-Jul-17 23:00N 33°32' W 118°04'3 5.5
2018-Jul-17 22:30N 33°34' W 118°06'3 5.6
2018-Jul-17 21:59N 33°36' W 118°08'3 5.6
2018-Jul-17 21:30N 33°38' W 118°10'3 5.2
2018-Jul-17 21:00N 33°40' W 118°12'3 5.1
2018-Jul-17 20:30N 33°42' W 118°14'2 3.9
2018-Jul-17 20:00N 33°43' W 118°16'1 1.4
2018-Jul-17 19:30N 33°44' W 118°16'0 0.0
2018-Jul-17 19:00N 33°44' W 118°16'0 0.0
2018-Jul-17 18:30N 33°44' W 118°16'0 0.1
2018-Jul-17 18:01N 33°44' W 118°16'2 3.9
2018-Jul-17 17:30N 33°46' W 118°16'0 0.6
2018-Jul-17 17:00N 33°46' W 118°16'0 0.0
2018-Jul-17 16:30N 33°46' W 118°16'0 0.0
2018-Jul-17 16:00N 33°46' W 118°16'0 0.0
2018-Jul-17 15:30N 33°46' W 118°16'0 0.0
2018-Jul-17 15:00N 33°46' W 118°16'0 0.0
2018-Jul-17 14:30N 33°46' W 118°16'0 0.0
2018-Jul-17 14:00N 33°46' W 118°16'0 0.0
2018-Jul-17 13:30N 33°46' W 118°16'0 0.0
2018-Jul-17 13:00N 33°46' W 118°16'0 0.0
2018-Jul-17 12:30N 33°46' W 118°16'0 0.0
2018-Jul-17 12:00N 33°46' W 118°16'0 0.0
2018-Jul-17 11:30N 33°46' W 118°16'0 0.0
2018-Jul-17 10:58N 33°46' W 118°16'0 0.0
2018-Jul-17 10:30N 33°46' W 118°16'1 1.9
2018-Jul-17 10:00N 33°45' W 118°16'1 2.8
2018-Jul-17 09:30N 33°44' W 118°16'0 0.2
2018-Jul-17 08:59N 33°44' W 118°17'0 0.0
2018-Jul-17 08:30N 33°44' W 118°17'0 0.0
2018-Jul-17 08:00N 33°44' W 118°17'0 0.0
2018-Jul-17 07:31N 33°44' W 118°17'0 0.0
2018-Jul-17 07:00N 33°44' W 118°17'0 0.0
2018-Jul-17 06:31N 33°44' W 118°17'0 0.0
2018-Jul-17 06:00N 33°44' W 118°17'0 0.0
2018-Jul-17 05:30N 33°44' W 118°17'0 0.0
2018-Jul-17 05:00N 33°44' W 118°17'0 0.0
2018-Jul-17 04:30N 33°44' W 118°17'0 0.0
2018-Jul-17 04:00N 33°44' W 118°17'0 0.0
2018-Jul-17 03:29N 33°44' W 118°17'0 0.0
2018-Jul-17 02:59N 33°44' W 118°17'0 0.0
2018-Jul-17 02:30N 33°44' W 118°17'0 0.0
2018-Jul-17 02:00N 33°44' W 118°17'0 0.0
2018-Jul-17 01:30N 33°44' W 118°17'0 0.0
2018-Jul-17 01:01N 33°44' W 118°17'0 0.1
2018-Jul-17 00:31N 33°44' W 118°16'2 1.6
2018-Jul-16 23:30N 33°45' W 118°16'0 0.0
2018-Jul-16 23:01N 33°45' W 118°16'0 0.0
2018-Jul-16 22:30N 33°45' W 118°16'0 0.0
2018-Jul-16 22:00N 33°45' W 118°16'0 0.0
2018-Jul-16 21:31N 33°45' W 118°16'0 0.0
2018-Jul-16 21:01N 33°45' W 118°16'0 0.0
2018-Jul-16 20:30N 33°45' W 118°16'0 0.0
2018-Jul-16 20:00N 33°45' W 118°16'0 0.0
2018-Jul-16 19:30N 33°45' W 118°16'0 0.0
2018-Jul-16 19:01N 33°45' W 118°16'0 0.0
2018-Jul-16 18:30N 33°45' W 118°16'0 0.0
2018-Jul-16 18:00N 33°45' W 118°16'0 0.0
2018-Jul-16 17:30N 33°45' W 118°16'0 0.0
2018-Jul-16 17:00N 33°45' W 118°16'0 0.0
2018-Jul-16 16:30N 33°45' W 118°16'0 0.0
2018-Jul-16 16:00N 33°45' W 118°16'0 0.0
2018-Jul-16 15:31N 33°45' W 118°16'0 0.0
2018-Jul-16 15:00N 33°45' W 118°16'0 0.7
2018-Jul-16 14:30N 33°45' W 118°16'1 2.5
2018-Jul-16 14:01N 33°44' W 118°17'0 0.0
2018-Jul-16 13:30N 33°44' W 118°17'0 0.0
2018-Jul-16 13:00N 33°44' W 118°17'0 0.0
2018-Jul-16 12:30N 33°44' W 118°17'0 0.0
2018-Jul-16 12:00N 33°44' W 118°17'0 0.0
2018-Jul-16 11:30N 33°44' W 118°17'0 0.0
2018-Jul-16 11:00N 33°44' W 118°17'0 0.0
2018-Jul-16 10:31N 33°44' W 118°17'0 0.0
2018-Jul-16 10:01N 33°44' W 118°17'0 0.0
2018-Jul-16 09:30N 33°44' W 118°17'0 0.0
2018-Jul-16 09:00N 33°44' W 118°17'0 0.0
2018-Jul-16 08:30N 33°44' W 118°17'0 0.0
2018-Jul-16 08:00N 33°44' W 118°17'0 0.0
2018-Jul-16 07:31N 33°44' W 118°17'0 0.0
2018-Jul-16 07:00N 33°44' W 118°17'0 0.0
2018-Jul-16 06:30N 33°44' W 118°17'0 0.0
2018-Jul-16 06:00N 33°44' W 118°17'0 0.0
2018-Jul-16 05:30N 33°44' W 118°17'0 0.0
2018-Jul-16 05:00N 33°44' W 118°17'0 0.0
2018-Jul-16 04:30N 33°44' W 118°17'0 0.0
2018-Jul-16 04:00N 33°44' W 118°17'0 0.0
2018-Jul-16 03:30N 33°44' W 118°17'0 0.0
2018-Jul-16 03:01N 33°44' W 118°17'0 0.0
2018-Jul-16 02:29N 33°44' W 118°17'0 0.0
2018-Jul-16 02:00N 33°44' W 118°17'0 0.0
2018-Jul-16 01:30N 33°44' W 118°17'0 0.0
2018-Jul-16 01:01N 33°44' W 118°17'0 0.0
2018-Jul-16 00:30N 33°44' W 118°17'0 0.0
2018-Jul-16 00:00N 33°44' W 118°17'0 0.0
2018-Jul-15 23:30N 33°44' W 118°17'0 0.0
2018-Jul-15 23:01N 33°44' W 118°17'0 0.0
2018-Jul-15 22:31N 33°44' W 118°17'0 0.0
2018-Jul-15 22:00N 33°44' W 118°17'0 0.0
2018-Jul-15 21:30N 33°44' W 118°17'0 0.0
2018-Jul-15 21:00N 33°44' W 118°17'0 0.0
2018-Jul-15 20:30N 33°44' W 118°17'0 0.0
2018-Jul-15 20:01N 33°44' W 118°17'0 0.0
2018-Jul-15 19:30N 33°44' W 118°17'0 0.0
2018-Jul-15 19:00N 33°44' W 118°17'0 0.0
2018-Jul-15 18:30N 33°44' W 118°17'0 0.0
2018-Jul-15 18:00N 33°44' W 118°17'0 0.0
2018-Jul-15 17:30N 33°44' W 118°17'0 0.0
2018-Jul-15 17:00N 33°44' W 118°17'0 0.0
2018-Jul-15 16:31N 33°44' W 118°17'0 0.0
2018-Jul-15 15:59N 33°44' W 118°17'0 0.1
2018-Jul-15 15:31N 33°44' W 118°16'0 0.0
2018-Jul-15 15:00N 33°44' W 118°16'0 0.0
2018-Jul-15 14:30N 33°44' W 118°16'0 0.0
2018-Jul-15 14:01N 33°44' W 118°16'0 0.0
2018-Jul-15 13:30N 33°44' W 118°16'0 0.0
2018-Jul-15 13:01N 33°44' W 118°16'0 0.0
2018-Jul-15 12:30N 33°44' W 118°16'0 0.0
2018-Jul-15 12:00N 33°44' W 118°16'0 0.0
2018-Jul-15 11:30N 33°44' W 118°16'0 0.0
2018-Jul-15 11:00N 33°44' W 118°16'0 0.0
2018-Jul-15 10:30N 33°44' W 118°16'0 0.0
2018-Jul-15 10:00N 33°44' W 118°16'0 0.0
2018-Jul-15 09:31N 33°44' W 118°16'0 0.0
2018-Jul-15 09:00N 33°44' W 118°16'0 0.0
2018-Jul-15 08:30N 33°44' W 118°16'0 0.0
2018-Jul-15 08:00N 33°44' W 118°16'0 0.0
2018-Jul-15 07:30N 33°44' W 118°16'0 0.0
2018-Jul-15 07:00N 33°44' W 118°16'0 0.0
2018-Jul-15 06:30N 33°44' W 118°16'0 0.0
2018-Jul-15 06:00N 33°44' W 118°16'0 0.0
2018-Jul-15 05:30N 33°44' W 118°16'0 0.0
2018-Jul-15 05:01N 33°44' W 118°16'0 0.0
2018-Jul-15 04:31N 33°44' W 118°16'0 0.0
2018-Jul-15 04:00N 33°44' W 118°16'0 0.0
2018-Jul-15 03:30N 33°44' W 118°16'0 0.0
2018-Jul-15 03:00N 33°44' W 118°16'0 0.0
2018-Jul-15 02:30N 33°44' W 118°16'0 0.0
2018-Jul-15 02:01N 33°44' W 118°16'0 0.1
2018-Jul-15 01:30N 33°44' W 118°17'2 3.2
2018-Jul-15 01:00N 33°45' W 118°16'0 0.0
2018-Jul-15 00:30N 33°45' W 118°16'0 0.0
2018-Jul-15 00:00N 33°45' W 118°16'0 0.0
2018-Jul-14 23:30N 33°45' W 118°16'0 0.0
2018-Jul-14 23:00N 33°45' W 118°16'0 0.0
2018-Jul-14 22:30N 33°45' W 118°16'0 0.0
2018-Jul-14 22:01N 33°45' W 118°16'0 0.0
2018-Jul-14 21:30N 33°45' W 118°16'0 0.1
2018-Jul-14 21:01N 33°45' W 118°16'0 0.1
2018-Jul-14 20:30N 33°45' W 118°16'0 0.0
2018-Jul-14 20:00N 33°45' W 118°16'2 3.3
2018-Jul-14 19:30N 33°44' W 118°16'0 0.2
2018-Jul-14 19:01N 33°44' W 118°16'0 0.0
2018-Jul-14 18:31N 33°44' W 118°16'0 0.0
2018-Jul-14 17:59N 33°44' W 118°16'0 0.0
2018-Jul-14 17:30N 33°44' W 118°16'0 0.0
2018-Jul-14 17:00N 33°44' W 118°16'0 0.0
2018-Jul-14 16:30N 33°44' W 118°16'0 0.0
2018-Jul-14 16:00N 33°44' W 118°16'0 0.0
2018-Jul-14 15:30N 33°44' W 118°16'0 0.1
2018-Jul-14 15:00N 33°44' W 118°17'0 0.1
2018-Jul-14 14:31N 33°44' W 118°17'0 0.0
2018-Jul-14 13:30N 33°44' W 118°17'0 0.0
2018-Jul-14 13:00N 33°44' W 118°17'0 0.0
2018-Jul-14 12:31N 33°44' W 118°17'0 0.0
2018-Jul-14 12:01N 33°44' W 118°17'0 0.0
2018-Jul-14 11:30N 33°44' W 118°17'0 0.0
2018-Jul-14 10:59N 33°44' W 118°17'0 0.0
2018-Jul-14 10:30N 33°44' W 118°17'0 0.0
2018-Jul-14 10:00N 33°44' W 118°17'0 0.0
2018-Jul-14 09:30N 33°44' W 118°17'0 0.0
2018-Jul-14 09:01N 33°44' W 118°17'0 0.0
2018-Jul-14 08:30N 33°44' W 118°17'0 0.0
2018-Jul-14 08:00N 33°44' W 118°17'0 0.0
2018-Jul-14 07:31N 33°44' W 118°17'0 0.0
2018-Jul-14 07:00N 33°44' W 118°17'0 0.0
2018-Jul-14 06:30N 33°44' W 118°17'0 0.0
2018-Jul-14 06:00N 33°44' W 118°17'0 0.0
2018-Jul-14 05:30N 33°44' W 118°17'0 0.0
2018-Jul-14 05:00N 33°44' W 118°17'0 0.0
2018-Jul-14 04:30N 33°44' W 118°17'0 0.0
2018-Jul-14 04:01N 33°44' W 118°17'0 0.0
2018-Jul-14 03:31N 33°44' W 118°17'0 0.1
2018-Jul-14 03:00N 33°44' W 118°17'2 4.8
2018-Jul-14 02:30N 33°43' W 118°14'1 2.4
2018-Jul-14 02:00N 33°44' W 118°13'0 0.1
2018-Jul-14 01:30N 33°44' W 118°13'0 0.0
2018-Jul-14 01:00N 33°44' W 118°13'0 0.1
2018-Jul-14 00:31N 33°44' W 118°13'0 0.1
2018-Jul-14 00:00N 33°44' W 118°13'1 1.9
2018-Jul-13 23:30N 33°43' W 118°14'2 4.9
2018-Jul-13 23:01N 33°44' W 118°17'0 0.0
2018-Jul-13 22:30N 33°44' W 118°17'0 0.0
2018-Jul-13 22:00N 33°44' W 118°17'0 0.4
2018-Jul-13 21:31N 33°44' W 118°16'3 5.6
2018-Jul-13 21:00N 33°43' W 118°13'2 4.5
2018-Jul-13 20:30N 33°45' W 118°11'2 3.5
2018-Jul-13 20:00N 33°44' W 118°13'0 0.4
2018-Jul-13 19:30N 33°44' W 118°13'3 5.9
2018-Jul-13 19:00N 33°43' W 118°16'0 0.6
2018-Jul-13 18:30N 33°44' W 118°17'0 0.0
2018-Jul-13 18:00N 33°44' W 118°17'0 0.0
2018-Jul-13 17:30N 33°44' W 118°17'0 0.0
2018-Jul-13 17:01N 33°44' W 118°17'0 0.0
2018-Jul-13 16:30N 33°44' W 118°17'0 0.0
2018-Jul-13 16:00N 33°44' W 118°17'0 0.0
2018-Jul-13 15:30N 33°44' W 118°17'0 0.0
2018-Jul-13 15:00N 33°44' W 118°17'4 4.0
2018-Jul-13 14:00N 33°44' W 118°12'1 2.0
2018-Jul-13 13:30N 33°44' W 118°11'3 6.5
2018-Jul-13 13:00N 33°43' W 118°14'2 4.0
2018-Jul-13 12:30N 33°44' W 118°17'0 0.0
2018-Jul-13 12:00N 33°44' W 118°17'0 0.0
2018-Jul-13 11:31N 33°44' W 118°17'0 0.0
2018-Jul-13 11:00N 33°44' W 118°17'2 4.7
2018-Jul-13 10:30N 33°43' W 118°14'3 5.8
2018-Jul-13 10:00N 33°44' W 118°10'0 0.0
2018-Jul-13 07:30N 33°44' W 118°10'0 0.0
2018-Jul-13 07:00N 33°44' W 118°10'0 0.0
2018-Jul-13 06:30N 33°44' W 118°10'0 0.0
2018-Jul-13 06:00N 33°44' W 118°10'1 2.9
2018-Jul-13 05:31N 33°44' W 118°12'2 4.0
2018-Jul-13 05:00N 33°45' W 118°14'0 0.0
2018-Jul-13 04:30N 33°45' W 118°14'0 0.0
2018-Jul-13 04:01N 33°45' W 118°14'0 0.0
2018-Jul-13 03:31N 33°45' W 118°14'0 0.0
2018-Jul-13 03:01N 33°45' W 118°14'0 0.0
2018-Jul-13 02:30N 33°45' W 118°14'2 4.0
2018-Jul-13 02:00N 33°43' W 118°14'2 4.4
2018-Jul-13 01:31N 33°44' W 118°16'2 5.0
2018-Jul-13 01:01N 33°43' W 118°13'2 3.6
2018-Jul-13 00:30N 33°45' W 118°14'0 0.7
2018-Jul-13 00:00N 33°45' W 118°14'1 2.6
2018-Jul-12 23:31N 33°44' W 118°13'3 5.3
2018-Jul-12 23:01N 33°44' W 118°16'0 0.6
2018-Jul-12 22:30N 33°44' W 118°17'0 0.0
2018-Jul-12 22:01N 33°44' W 118°17'0 0.1
2018-Jul-12 21:31N 33°44' W 118°16'2 3.2
2018-Jul-12 21:00N 33°45' W 118°16'0 0.0
2018-Jul-12 20:30N 33°45' W 118°16'0 0.0
2018-Jul-12 20:01N 33°45' W 118°16'0 0.0
2018-Jul-12 19:31N 33°45' W 118°16'0 0.0
2018-Jul-12 19:01N 33°45' W 118°16'0 0.0
2018-Jul-12 18:31N 33°45' W 118°16'0 0.0
2018-Jul-12 18:01N 33°45' W 118°16'0 0.0
2018-Jul-12 17:30N 33°45' W 118°16'0 0.0
2018-Jul-12 17:00N 33°45' W 118°16'0 0.1
2018-Jul-12 16:31N 33°45' W 118°16'0 0.0
2018-Jul-12 16:01N 33°45' W 118°16'2 3.1
2018-Jul-12 15:30N 33°44' W 118°17'0 0.0
2018-Jul-12 15:01N 33°44' W 118°17'0 0.0
2018-Jul-12 14:31N 33°44' W 118°17'0 0.0
2018-Jul-12 14:00N 33°44' W 118°17'0 0.4
2018-Jul-12 13:31N 33°44' W 118°16'2 3.6
2018-Jul-12 13:01N 33°42' W 118°15'3 5.4
2018-Jul-12 12:31N 33°40' W 118°13'3 5.2
2018-Jul-12 12:01N 33°38' W 118°11'3 5.1
2018-Jul-12 11:29N 33°37' W 118°08'2 4.3
2018-Jul-12 11:00N 33°35' W 118°07'2 4.4
2018-Jul-12 10:31N 33°33' W 118°06'2 4.4
2018-Jul-12 10:01N 33°31' W 118°04'2 4.5
2018-Jul-12 09:30N 33°29' W 118°03'2 4.4
2018-Jul-12 09:00N 33°28' W 118°01'2 4.9
2018-Jul-12 08:30N 33°26' W 117°60'3 5.2
2018-Jul-12 08:00N 33°24' W 117°58'3 5.2
2018-Jul-12 07:30N 33°21' W 117°56'3 5.1
2018-Jul-12 07:01N 33°19' W 117°54'3 5.1
2018-Jul-12 06:31N 33°17' W 117°52'3 5.1
2018-Jul-12 06:01N 33°15' W 117°50'3 5.0
2018-Jul-12 05:30N 33°13' W 117°48'3 5.1
2018-Jul-12 05:00N 33°11' W 117°46'2 5.0
2018-Jul-12 04:30N 33°09' W 117°45'3 5.1
2018-Jul-12 04:00N 33°08' W 117°43'2 5.0
2018-Jul-12 03:30N 33°06' W 117°41'2 4.4
2018-Jul-12 03:00N 33°04' W 117°39'2 4.4
2018-Jul-12 02:30N 33°02' W 117°37'2 4.5
2018-Jul-12 02:00N 33°01' W 117°35'2 4.6
2018-Jul-12 01:31N 32°59' W 117°34'2 4.6
2018-Jul-12 01:00N 32°57' W 117°32'2 4.7
2018-Jul-12 00:30N 32°55' W 117°30'3 5.6
2018-Jul-12 00:01N 32°53' W 117°28'3 6.2
2018-Jul-11 23:31N 32°50' W 117°26'3 6.7
2018-Jul-11 23:00N 32°48' W 117°24'4 7.2
2018-Jul-11 22:30N 32°45' W 117°21'3 7.0
2018-Jul-11 22:01N 32°42' W 117°19'4 7.2
2018-Jul-11 21:31N 32°39' W 117°16'2 4.5
2018-Jul-11 21:00N 32°39' W 117°14'3 6.8
2018-Jul-11 20:30N 32°42' W 117°14'7 1.0
2018-Jul-11 14:00N 32°39' W 117°07'4 6.1
2018-Jul-11 13:24N 32°42' W 117°10'0 0.0
2018-Jul-11 01:08N 32°42' W 117°10'0 0.0
2018-Jul-11 00:48N 32°42' W 117°10'0 0.0
2018-Jul-11 00:22N 32°42' W 117°10'0 0.0
2018-Jul-10 18:48N 32°42' W 117°10'0 0.0
2018-Jul-10 18:31N 32°42' W 117°10'0 0.0
2018-Jul-10 17:28N 32°42' W 117°10'0 0.0
2018-Jul-10 17:00N 32°42' W 117°10'0 0.0
2018-Jul-10 16:29N 32°42' W 117°10'0 0.0
2018-Jul-10 14:29N 32°42' W 117°10'2 3.7
2018-Jul-10 14:00N 32°43' W 117°11'3 5.8
2018-Jul-10 13:30N 32°41' W 117°14'3 6.6
2018-Jul-10 13:00N 32°38' W 117°13'2 4.4
2018-Jul-10 12:30N 32°38' W 117°16'3 5.6
2018-Jul-10 12:00N 32°40' W 117°18'3 6.1
2018-Jul-10 11:30N 32°43' W 117°20'3 6.2
2018-Jul-10 11:00N 32°45' W 117°23'3 6.3
2018-Jul-10 10:30N 32°47' W 117°25'  
Track history (hours):
 
Tides and Currents Weather Stations Pressure Air Temp Water Temp Dewpoint Dewpoint Depression Visibility Wind Speed Wind Dir Waves Ship Positions

Robyn J

Owner: JANKOVICH, TOM J, SAN PEDRO, CA. More information available from US FCC via Universal Licensing System and Coast Guard Vessel Documentation Center.

Last reported at 2018-Jul-20 10:30 UTC. Time now 2018-Jul-20 10:51 UTC.
Position N 33°44' W 118°17'.

Length 36 m; draft 3 m.

Type: Tug. MMSI: 367006770.

Date/timePositionNaut miles runAvg speedWind from/ knotsBaromVisibWave heightAir tempDewpointWater temp
2018-Jul-20 10:30N 33°44' W 118°17'0 0.0
2018-Jul-20 10:00N 33°44' W 118°17'0 0.0
2018-Jul-20 09:31N 33°44' W 118°17'0 0.0
2018-Jul-20 09:00N 33°44' W 118°17'0 0.0
2018-Jul-20 08:30N 33°44' W 118°17'0 0.0
2018-Jul-20 07:59N 33°44' W 118°17'0 0.0
2018-Jul-20 07:30N 33°44' W 118°17'0 0.0
2018-Jul-20 07:00N 33°44' W 118°17'0 0.0
2018-Jul-20 06:30N 33°44' W 118°17'0 0.0
2018-Jul-20 06:00N 33°44' W 118°17'0 0.0
2018-Jul-20 05:31N 33°44' W 118°17'0 0.0
2018-Jul-20 05:00N 33°44' W 118°17'0 0.3
2018-Jul-20 04:30N 33°44' W 118°16'2 3.8
2018-Jul-20 04:01N 33°42' W 118°15'3 6.4
2018-Jul-20 03:30N 33°39' W 118°14'3 6.8
2018-Jul-20 03:00N 33°36' W 118°14'4 7.5
2018-Jul-20 02:30N 33°32' W 118°15'4 7.5
2018-Jul-20 01:58N 33°28' W 118°15'4 7.7
2018-Jul-20 01:30N 33°25' W 118°16'5 8.2
2018-Jul-20 00:57N 33°20' W 118°16'7 8.0
2018-Jul-20 00:02N 33°13' W 118°20'1 8.6
2018-Jul-19 23:59N 33°13' W 118°20'5 8.3
2018-Jul-19 23:26N 33°10' W 118°24'6 7.6
2018-Jul-19 22:36N 33°05' W 118°29'2 8.1
2018-Jul-19 22:23N 33°04' W 118°30'3 7.7
2018-Jul-19 21:58N 33°01' W 118°33'1 1.9
2018-Jul-19 21:30N 33°00' W 118°33'0 0.1
2018-Jul-19 20:58N 33°00' W 118°33'0 0.1
2018-Jul-19 20:02N 33°00' W 118°33'0 0.0
2018-Jul-19 19:59N 33°00' W 118°33'0 0.0
2018-Jul-19 16:43N 33°00' W 118°33'0 0.1
2018-Jul-19 16:19N 33°00' W 118°33'0 0.1
2018-Jul-19 15:47N 33°00' W 118°33'0 0.0
2018-Jul-19 15:18N 33°00' W 118°33'0 0.0
2018-Jul-19 15:01N 33°00' W 118°33'3 3.3
2018-Jul-19 14:01N 33°03' W 118°31'4 7.0
2018-Jul-19 13:29N 33°06' W 118°29'3 6.9
2018-Jul-19 13:01N 33°09' W 118°27'3 6.6
2018-Jul-19 12:31N 33°11' W 118°24'3 6.6
2018-Jul-19 12:00N 33°14' W 118°21'3 6.4
2018-Jul-19 11:30N 33°16' W 118°19'3 6.4
2018-Jul-19 11:01N 33°19' W 118°17'3 6.7
2018-Jul-19 10:31N 33°22' W 118°17'3 6.7
2018-Jul-19 10:01N 33°26' W 118°17'4 6.9
2018-Jul-19 09:29N 33°29' W 118°16'3 6.9
2018-Jul-19 09:00N 33°33' W 118°15'4 7.1
2018-Jul-19 08:30N 33°36' W 118°15'4 7.3
2018-Jul-19 08:00N 33°40' W 118°15'3 6.8
2018-Jul-19 07:30N 33°43' W 118°14'2 4.3
2018-Jul-19 07:00N 33°45' W 118°13'0 0.3
2018-Jul-19 06:29N 33°45' W 118°13'0 0.0
2018-Jul-19 06:00N 33°45' W 118°13'0 0.9
2018-Jul-19 05:30N 33°44' W 118°12'3 6.9
2018-Jul-19 05:00N 33°44' W 118°16'0 0.6
2018-Jul-19 04:30N 33°44' W 118°16'1 1.7
2018-Jul-19 04:01N 33°43' W 118°16'1 1.1
2018-Jul-19 03:30N 33°44' W 118°16'0 0.0
2018-Jul-19 03:00N 33°44' W 118°16'1 2.8
2018-Jul-19 02:30N 33°42' W 118°15'5 9.1
2018-Jul-19 02:01N 33°40' W 118°10'5 9.0
2018-Jul-19 01:30N 33°36' W 118°08'5 9.2
2018-Jul-19 01:00N 33°32' W 118°05'5 9.4
2018-Jul-19 00:30N 33°28' W 118°02'5 9.7
2018-Jul-19 00:01N 33°24' W 117°58'5 9.5
2018-Jul-18 23:30N 33°20' W 117°55'5 9.5
2018-Jul-18 23:00N 33°17' W 117°51'5 9.5
2018-Jul-18 22:31N 33°13' W 117°47'5 9.6
2018-Jul-18 22:01N 33°09' W 117°44'5 9.9
2018-Jul-18 21:31N 33°06' W 117°40'510.1
2018-Jul-18 21:00N 33°02' W 117°36'510.1
2018-Jul-18 20:31N 32°58' W 117°33'5 9.9
2018-Jul-18 20:01N 32°54' W 117°29'5 9.7
2018-Jul-18 19:30N 32°49' W 117°26'5 9.6
2018-Jul-18 19:00N 32°46' W 117°23'5 9.4
2018-Jul-18 18:30N 32°42' W 117°19'4 8.9
2018-Jul-18 18:00N 32°38' W 117°16'3 5.7
2018-Jul-18 17:30N 32°41' W 117°14'4 1.7
2018-Jul-18 15:09N 32°41' W 117°09'1 5.6
2018-Jul-18 14:59N 32°42' W 117°10'2 5.1
2018-Jul-18 14:30N 32°43' W 117°12'3 3.2
2018-Jul-18 13:30N 32°40' W 117°14'2 4.4
2018-Jul-18 13:00N 32°38' W 117°13'2 4.7
2018-Jul-18 12:31N 32°37' W 117°16'3 5.6
2018-Jul-18 12:00N 32°39' W 117°19'3 5.4
2018-Jul-18 11:31N 32°41' W 117°21'5 5.0
2018-Jul-18 10:30N 32°45' W 117°25'2 4.7
2018-Jul-18 10:01N 32°47' W 117°26'2 4.7
2018-Jul-18 09:30N 32°48' W 117°28'2 4.6
2018-Jul-18 09:01N 32°50' W 117°30'2 4.5
2018-Jul-18 08:30N 32°52' W 117°32'2 4.6
2018-Jul-18 08:01N 32°53' W 117°34'2 4.6
2018-Jul-18 07:31N 32°55' W 117°36'2 4.9
2018-Jul-18 07:01N 32°57' W 117°38'2 5.0
2018-Jul-18 06:31N 32°59' W 117°40'3 5.0
2018-Jul-18 06:01N 33°01' W 117°41'2 4.8
2018-Jul-18 05:30N 33°03' W 117°43'2 4.9
2018-Jul-18 05:01N 33°05' W 117°45'2 4.9
2018-Jul-18 04:31N 33°07' W 117°46'3 5.1
2018-Jul-18 04:00N 33°09' W 117°48'3 5.1
2018-Jul-18 03:30N 33°11' W 117°49'3 5.1
2018-Jul-18 03:01N 33°13' W 117°51'3 5.3
2018-Jul-18 02:30N 33°16' W 117°53'3 5.2
2018-Jul-18 02:00N 33°18' W 117°54'3 5.3
2018-Jul-18 01:31N 33°20' W 117°56'3 5.4
2018-Jul-18 01:00N 33°22' W 117°58'3 5.4
2018-Jul-18 00:30N 33°25' W 117°59'3 5.3
2018-Jul-17 23:59N 33°27' W 118°01'4 5.3
2018-Jul-17 23:15N 33°31' W 118°03'1 5.5
2018-Jul-17 23:00N 33°32' W 118°04'3 5.5
2018-Jul-17 22:30N 33°34' W 118°06'3 5.6
2018-Jul-17 21:59N 33°36' W 118°08'3 5.6
2018-Jul-17 21:30N 33°38' W 118°10'3 5.2
2018-Jul-17 21:00N 33°40' W 118°12'3 5.1
2018-Jul-17 20:30N 33°42' W 118°14'2 3.9
2018-Jul-17 20:00N 33°43' W 118°16'1 1.4
2018-Jul-17 19:30N 33°44' W 118°16'0 0.0
2018-Jul-17 19:00N 33°44' W 118°16'0 0.0
2018-Jul-17 18:30N 33°44' W 118°16'0 0.1
2018-Jul-17 18:01N 33°44' W 118°16'2 3.9
2018-Jul-17 17:30N 33°46' W 118°16'0 0.6
2018-Jul-17 17:00N 33°46' W 118°16'0 0.0
2018-Jul-17 16:30N 33°46' W 118°16'0 0.0
2018-Jul-17 16:00N 33°46' W 118°16'0 0.0
2018-Jul-17 15:30N 33°46' W 118°16'0 0.0
2018-Jul-17 15:00N 33°46' W 118°16'0 0.0
2018-Jul-17 14:30N 33°46' W 118°16'0 0.0
2018-Jul-17 14:00N 33°46' W 118°16'0 0.0
2018-Jul-17 13:30N 33°46' W 118°16'0 0.0
2018-Jul-17 13:00N 33°46' W 118°16'0 0.0
2018-Jul-17 12:30N 33°46' W 118°16'0 0.0
2018-Jul-17 12:00N 33°46' W 118°16'0 0.0
2018-Jul-17 11:30N 33°46' W 118°16'0 0.0
2018-Jul-17 10:58N 33°46' W 118°16'0 0.0
2018-Jul-17 10:30N 33°46' W 118°16'1 1.9
2018-Jul-17 10:00N 33°45' W 118°16'1 2.8
2018-Jul-17 09:30N 33°44' W 118°16'0 0.2
2018-Jul-17 08:59N 33°44' W 118°17'0 0.0
2018-Jul-17 08:30N 33°44' W 118°17'0 0.0
2018-Jul-17 08:00N 33°44' W 118°17'0 0.0
2018-Jul-17 07:31N 33°44' W 118°17'0 0.0
2018-Jul-17 07:00N 33°44' W 118°17'0 0.0
2018-Jul-17 06:31N 33°44' W 118°17'0 0.0
2018-Jul-17 06:00N 33°44' W 118°17'0 0.0
2018-Jul-17 05:30N 33°44' W 118°17'0 0.0
2018-Jul-17 05:00N 33°44' W 118°17'0 0.0
2018-Jul-17 04:30N 33°44' W 118°17'0 0.0
2018-Jul-17 04:00N 33°44' W 118°17'0 0.0
2018-Jul-17 03:29N 33°44' W 118°17'0 0.0
2018-Jul-17 02:59N 33°44' W 118°17'0 0.0
2018-Jul-17 02:30N 33°44' W 118°17'0 0.0
2018-Jul-17 02:00N 33°44' W 118°17'0 0.0
2018-Jul-17 01:30N 33°44' W 118°17'0 0.0
2018-Jul-17 01:01N 33°44' W 118°17'0 0.1
2018-Jul-17 00:31N 33°44' W 118°16'2 1.6
2018-Jul-16 23:30N 33°45' W 118°16'0 0.0
2018-Jul-16 23:01N 33°45' W 118°16'0 0.0
2018-Jul-16 22:30N 33°45' W 118°16'0 0.0
2018-Jul-16 22:00N 33°45' W 118°16'0 0.0
2018-Jul-16 21:31N 33°45' W 118°16'0 0.0
2018-Jul-16 21:01N 33°45' W 118°16'0 0.0
2018-Jul-16 20:30N 33°45' W 118°16'0 0.0
2018-Jul-16 20:00N 33°45' W 118°16'0 0.0
2018-Jul-16 19:30N 33°45' W 118°16'0 0.0
2018-Jul-16 19:01N 33°45' W 118°16'0 0.0
2018-Jul-16 18:30N 33°45' W 118°16'0 0.0
2018-Jul-16 18:00N 33°45' W 118°16'0 0.0
2018-Jul-16 17:30N 33°45' W 118°16'0 0.0
2018-Jul-16 17:00N 33°45' W 118°16'0 0.0
2018-Jul-16 16:30N 33°45' W 118°16'0 0.0
2018-Jul-16 16:00N 33°45' W 118°16'0 0.0
2018-Jul-16 15:31N 33°45' W 118°16'0 0.0
2018-Jul-16 15:00N 33°45' W 118°16'0 0.7
2018-Jul-16 14:30N 33°45' W 118°16'1 2.5
2018-Jul-16 14:01N 33°44' W 118°17'0 0.0
2018-Jul-16 13:30N 33°44' W 118°17'0 0.0
2018-Jul-16 13:00N 33°44' W 118°17'0 0.0
2018-Jul-16 12:30N 33°44' W 118°17'0 0.0
2018-Jul-16 12:00N 33°44' W 118°17'0 0.0
2018-Jul-16 11:30N 33°44' W 118°17'0 0.0
2018-Jul-16 11:00N 33°44' W 118°17'0 0.0
2018-Jul-16 10:31N 33°44' W 118°17'0 0.0
2018-Jul-16 10:01N 33°44' W 118°17'0 0.0
2018-Jul-16 09:30N 33°44' W 118°17'0 0.0
2018-Jul-16 09:00N 33°44' W 118°17'0 0.0
2018-Jul-16 08:30N 33°44' W 118°17'0 0.0
2018-Jul-16 08:00N 33°44' W 118°17'0 0.0
2018-Jul-16 07:31N 33°44' W 118°17'0 0.0
2018-Jul-16 07:00N 33°44' W 118°17'0 0.0
2018-Jul-16 06:30N 33°44' W 118°17'0 0.0
2018-Jul-16 06:00N 33°44' W 118°17'0 0.0
2018-Jul-16 05:30N 33°44' W 118°17'0 0.0
2018-Jul-16 05:00N 33°44' W 118°17'0 0.0
2018-Jul-16 04:30N 33°44' W 118°17'0 0.0
2018-Jul-16 04:00N 33°44' W 118°17'0 0.0
2018-Jul-16 03:30N 33°44' W 118°17'0 0.0
2018-Jul-16 03:01N 33°44' W 118°17'0 0.0
2018-Jul-16 02:29N 33°44' W 118°17'0 0.0
2018-Jul-16 02:00N 33°44' W 118°17'0 0.0
2018-Jul-16 01:30N 33°44' W 118°17'0 0.0
2018-Jul-16 01:01N 33°44' W 118°17'0 0.0
2018-Jul-16 00:30N 33°44' W 118°17'0 0.0
2018-Jul-16 00:00N 33°44' W 118°17'0 0.0
2018-Jul-15 23:30N 33°44' W 118°17'0 0.0
2018-Jul-15 23:01N 33°44' W 118°17'0 0.0
2018-Jul-15 22:31N 33°44' W 118°17'0 0.0
2018-Jul-15 22:00N 33°44' W 118°17'0 0.0
2018-Jul-15 21:30N 33°44' W 118°17'0 0.0
2018-Jul-15 21:00N 33°44' W 118°17'0 0.0
2018-Jul-15 20:30N 33°44' W 118°17'0 0.0
2018-Jul-15 20:01N 33°44' W 118°17'0 0.0
2018-Jul-15 19:30N 33°44' W 118°17'0 0.0
2018-Jul-15 19:00N 33°44' W 118°17'0 0.0
2018-Jul-15 18:30N 33°44' W 118°17'0 0.0
2018-Jul-15 18:00N 33°44' W 118°17'0 0.0
2018-Jul-15 17:30N 33°44' W 118°17'0 0.0
2018-Jul-15 17:00N 33°44' W 118°17'0 0.0
2018-Jul-15 16:31N 33°44' W 118°17'0 0.0
2018-Jul-15 15:59N 33°44' W 118°17'0 0.1
2018-Jul-15 15:31N 33°44' W 118°16'0 0.0
2018-Jul-15 15:00N 33°44' W 118°16'0 0.0
2018-Jul-15 14:30N 33°44' W 118°16'0 0.0
2018-Jul-15 14:01N 33°44' W 118°16'0 0.0
2018-Jul-15 13:30N 33°44' W 118°16'0 0.0
2018-Jul-15 13:01N 33°44' W 118°16'0 0.0
2018-Jul-15 12:30N 33°44' W 118°16'0 0.0
2018-Jul-15 12:00N 33°44' W 118°16'0 0.0
2018-Jul-15 11:30N 33°44' W 118°16'0 0.0
2018-Jul-15 11:00N 33°44' W 118°16'0 0.0
2018-Jul-15 10:30N 33°44' W 118°16'0 0.0
2018-Jul-15 10:00N 33°44' W 118°16'0 0.0
2018-Jul-15 09:31N 33°44' W 118°16'0 0.0
2018-Jul-15 09:00N 33°44' W 118°16'0 0.0
2018-Jul-15 08:30N 33°44' W 118°16'0 0.0
2018-Jul-15 08:00N 33°44' W 118°16'0 0.0
2018-Jul-15 07:30N 33°44' W 118°16'0 0.0
2018-Jul-15 07:00N 33°44' W 118°16'0 0.0
2018-Jul-15 06:30N 33°44' W 118°16'0 0.0
2018-Jul-15 06:00N 33°44' W 118°16'0 0.0
2018-Jul-15 05:30N 33°44' W 118°16'0 0.0
2018-Jul-15 05:01N 33°44' W 118°16'0 0.0
2018-Jul-15 04:31N 33°44' W 118°16'0 0.0
2018-Jul-15 04:00N 33°44' W 118°16'0 0.0
2018-Jul-15 03:30N 33°44' W 118°16'0 0.0
2018-Jul-15 03:00N 33°44' W 118°16'0 0.0
2018-Jul-15 02:30N 33°44' W 118°16'0 0.0
2018-Jul-15 02:01N 33°44' W 118°16'0 0.1
2018-Jul-15 01:30N 33°44' W 118°17'2 3.2
2018-Jul-15 01:00N 33°45' W 118°16'0 0.0
2018-Jul-15 00:30N 33°45' W 118°16'0 0.0
2018-Jul-15 00:00N 33°45' W 118°16'0 0.0
2018-Jul-14 23:30N 33°45' W 118°16'0 0.0
2018-Jul-14 23:00N 33°45' W 118°16'0 0.0
2018-Jul-14 22:30N 33°45' W 118°16'0 0.0
2018-Jul-14 22:01N 33°45' W 118°16'0 0.0
2018-Jul-14 21:30N 33°45' W 118°16'0 0.1
2018-Jul-14 21:01N 33°45' W 118°16'0 0.1
2018-Jul-14 20:30N 33°45' W 118°16'0 0.0
2018-Jul-14 20:00N 33°45' W 118°16'2 3.3
2018-Jul-14 19:30N 33°44' W 118°16'0 0.2
2018-Jul-14 19:01N 33°44' W 118°16'0 0.0
2018-Jul-14 18:31N 33°44' W 118°16'0 0.0
2018-Jul-14 17:59N 33°44' W 118°16'0 0.0
2018-Jul-14 17:30N 33°44' W 118°16'0 0.0
2018-Jul-14 17:00N 33°44' W 118°16'0 0.0
2018-Jul-14 16:30N 33°44' W 118°16'0 0.0
2018-Jul-14 16:00N 33°44' W 118°16'0 0.0
2018-Jul-14 15:30N 33°44' W 118°16'0 0.1
2018-Jul-14 15:00N 33°44' W 118°17'0 0.1
2018-Jul-14 14:31N 33°44' W 118°17'0 0.0
2018-Jul-14 13:30N 33°44' W 118°17'0 0.0
2018-Jul-14 13:00N 33°44' W 118°17'0 0.0
2018-Jul-14 12:31N 33°44' W 118°17'0 0.0
2018-Jul-14 12:01N 33°44' W 118°17'0 0.0
2018-Jul-14 11:30N 33°44' W 118°17'0 0.0
2018-Jul-14 10:59N 33°44' W 118°17'0 0.0
2018-Jul-14 10:30N 33°44' W 118°17'0 0.0
2018-Jul-14 10:00N 33°44' W 118°17'0 0.0
2018-Jul-14 09:30N 33°44' W 118°17'0 0.0
2018-Jul-14 09:01N 33°44' W 118°17'0 0.0
2018-Jul-14 08:30N 33°44' W 118°17'0 0.0
2018-Jul-14 08:00N 33°44' W 118°17'0 0.0
2018-Jul-14 07:31N 33°44' W 118°17'0 0.0
2018-Jul-14 07:00N 33°44' W 118°17'0 0.0
2018-Jul-14 06:30N 33°44' W 118°17'0 0.0
2018-Jul-14 06:00N 33°44' W 118°17'0 0.0
2018-Jul-14 05:30N 33°44' W 118°17'0 0.0
2018-Jul-14 05:00N 33°44' W 118°17'0 0.0
2018-Jul-14 04:30N 33°44' W 118°17'0 0.0
2018-Jul-14 04:01N 33°44' W 118°17'0 0.0
2018-Jul-14 03:31N 33°44' W 118°17'0 0.1
2018-Jul-14 03:00N 33°44' W 118°17'2 4.8
2018-Jul-14 02:30N 33°43' W 118°14'1 2.4
2018-Jul-14 02:00N 33°44' W 118°13'0 0.1
2018-Jul-14 01:30N 33°44' W 118°13'0 0.0
2018-Jul-14 01:00N 33°44' W 118°13'0 0.1
2018-Jul-14 00:31N 33°44' W 118°13'0 0.1
2018-Jul-14 00:00N 33°44' W 118°13'1 1.9
2018-Jul-13 23:30N 33°43' W 118°14'2 4.9
2018-Jul-13 23:01N 33°44' W 118°17'0 0.0
2018-Jul-13 22:30N 33°44' W 118°17'0 0.0
2018-Jul-13 22:00N 33°44' W 118°17'0 0.4
2018-Jul-13 21:31N 33°44' W 118°16'3 5.6
2018-Jul-13 21:00N 33°43' W 118°13'2 4.5
2018-Jul-13 20:30N 33°45' W 118°11'2 3.5
2018-Jul-13 20:00N 33°44' W 118°13'0 0.4
2018-Jul-13 19:30N 33°44' W 118°13'3 5.9
2018-Jul-13 19:00N 33°43' W 118°16'0 0.6
2018-Jul-13 18:30N 33°44' W 118°17'0 0.0
2018-Jul-13 18:00N 33°44' W 118°17'0 0.0
2018-Jul-13 17:30N 33°44' W 118°17'0 0.0
2018-Jul-13 17:01N 33°44' W 118°17'0 0.0
2018-Jul-13 16:30N 33°44' W 118°17'0 0.0
2018-Jul-13 16:00N 33°44' W 118°17'0 0.0
2018-Jul-13 15:30N 33°44' W 118°17'0 0.0
2018-Jul-13 15:00N 33°44' W 118°17'4 4.0
2018-Jul-13 14:00N 33°44' W 118°12'1 2.0
2018-Jul-13 13:30N 33°44' W 118°11'3 6.5
2018-Jul-13 13:00N 33°43' W 118°14'2 4.0
2018-Jul-13 12:30N 33°44' W 118°17'0 0.0
2018-Jul-13 12:00N 33°44' W 118°17'0 0.0
2018-Jul-13 11:31N 33°44' W 118°17'0 0.0
2018-Jul-13 11:00N 33°44' W 118°17'2 4.7
2018-Jul-13 10:30N 33°43' W 118°14'3 5.8
2018-Jul-13 10:00N 33°44' W 118°10'0 0.0
2018-Jul-13 07:30N 33°44' W 118°10'0 0.0
2018-Jul-13 07:00N 33°44' W 118°10'0 0.0
2018-Jul-13 06:30N 33°44' W 118°10'0 0.0
2018-Jul-13 06:00N 33°44' W 118°10'1 2.9
2018-Jul-13 05:31N 33°44' W 118°12'2 4.0
2018-Jul-13 05:00N 33°45' W 118°14'0 0.0
2018-Jul-13 04:30N 33°45' W 118°14'0 0.0
2018-Jul-13 04:01N 33°45' W 118°14'0 0.0
2018-Jul-13 03:31N 33°45' W 118°14'0 0.0
2018-Jul-13 03:01N 33°45' W 118°14'0 0.0
2018-Jul-13 02:30N 33°45' W 118°14'2 4.0
2018-Jul-13 02:00N 33°43' W 118°14'2 4.4
2018-Jul-13 01:31N 33°44' W 118°16'2 5.0
2018-Jul-13 01:01N 33°43' W 118°13'2 3.6
2018-Jul-13 00:30N 33°45' W 118°14'0 0.7
2018-Jul-13 00:00N 33°45' W 118°14'1 2.6
2018-Jul-12 23:31N 33°44' W 118°13'3 5.3
2018-Jul-12 23:01N 33°44' W 118°16'0 0.6
2018-Jul-12 22:30N 33°44' W 118°17'0 0.0
2018-Jul-12 22:01N 33°44' W 118°17'0 0.1
2018-Jul-12 21:31N 33°44' W 118°16'2 3.2
2018-Jul-12 21:00N 33°45' W 118°16'0 0.0
2018-Jul-12 20:30N 33°45' W 118°16'0 0.0
2018-Jul-12 20:01N 33°45' W 118°16'0 0.0
2018-Jul-12 19:31N 33°45' W 118°16'0 0.0
2018-Jul-12 19:01N 33°45' W 118°16'0 0.0
2018-Jul-12 18:31N 33°45' W 118°16'0 0.0
2018-Jul-12 18:01N 33°45' W 118°16'0 0.0
2018-Jul-12 17:30N 33°45' W 118°16'0 0.0
2018-Jul-12 17:00N 33°45' W 118°16'0 0.1
2018-Jul-12 16:31N 33°45' W 118°16'0 0.0
2018-Jul-12 16:01N 33°45' W 118°16'2 3.1
2018-Jul-12 15:30N 33°44' W 118°17'0 0.0
2018-Jul-12 15:01N 33°44' W 118°17'0 0.0
2018-Jul-12 14:31N 33°44' W 118°17'0 0.0
2018-Jul-12 14:00N 33°44' W 118°17'0 0.4
2018-Jul-12 13:31N 33°44' W 118°16'2 3.6
2018-Jul-12 13:01N 33°42' W 118°15'3 5.4
2018-Jul-12 12:31N 33°40' W 118°13'3 5.2
2018-Jul-12 12:01N 33°38' W 118°11'3 5.1
2018-Jul-12 11:29N 33°37' W 118°08'2 4.3
2018-Jul-12 11:00N 33°35' W 118°07'2 4.4
2018-Jul-12 10:31N 33°33' W 118°06'2 4.4
2018-Jul-12 10:01N 33°31' W 118°04'2 4.5
2018-Jul-12 09:30N 33°29' W 118°03'2 4.4
2018-Jul-12 09:00N 33°28' W 118°01'2 4.9
2018-Jul-12 08:30N 33°26' W 117°60'3 5.2
2018-Jul-12 08:00N 33°24' W 117°58'3 5.2
2018-Jul-12 07:30N 33°21' W 117°56'3 5.1
2018-Jul-12 07:01N 33°19' W 117°54'3 5.1
2018-Jul-12 06:31N 33°17' W 117°52'3 5.1
2018-Jul-12 06:01N 33°15' W 117°50'3 5.0
2018-Jul-12 05:30N 33°13' W 117°48'3 5.1
2018-Jul-12 05:00N 33°11' W 117°46'2 5.0
2018-Jul-12 04:30N 33°09' W 117°45'3 5.1
2018-Jul-12 04:00N 33°08' W 117°43'2 5.0
2018-Jul-12 03:30N 33°06' W 117°41'2 4.4
2018-Jul-12 03:00N 33°04' W 117°39'2 4.4
2018-Jul-12 02:30N 33°02' W 117°37'2 4.5
2018-Jul-12 02:00N 33°01' W 117°35'2 4.6
2018-Jul-12 01:31N 32°59' W 117°34'2 4.6
2018-Jul-12 01:00N 32°57' W 117°32'2 4.7
2018-Jul-12 00:30N 32°55' W 117°30'3 5.6
2018-Jul-12 00:01N 32°53' W 117°28'3 6.2
2018-Jul-11 23:31N 32°50' W 117°26'3 6.7
2018-Jul-11 23:00N 32°48' W 117°24'4 7.2
2018-Jul-11 22:30N 32°45' W 117°21'3 7.0
2018-Jul-11 22:01N 32°42' W 117°19'4 7.2
2018-Jul-11 21:31N 32°39' W 117°16'2 4.5
2018-Jul-11 21:00N 32°39' W 117°14'3 6.8
2018-Jul-11 20:30N 32°42' W 117°14'7 1.0
2018-Jul-11 14:00N 32°39' W 117°07'4 6.1
2018-Jul-11 13:24N 32°42' W 117°10'0 0.0
2018-Jul-11 01:08N 32°42' W 117°10'0 0.0
2018-Jul-11 00:48N 32°42' W 117°10'0 0.0
2018-Jul-11 00:22N 32°42' W 117°10'0 0.0
2018-Jul-10 18:48N 32°42' W 117°10'0 0.0
2018-Jul-10 18:31N 32°42' W 117°10'0 0.0
2018-Jul-10 17:28N 32°42' W 117°10'0 0.0
2018-Jul-10 17:00N 32°42' W 117°10'0 0.0
2018-Jul-10 16:29N 32°42' W 117°10'0 0.0
2018-Jul-10 14:29N 32°42' W 117°10'2 3.7
2018-Jul-10 14:00N 32°43' W 117°11'3 5.8
2018-Jul-10 13:30N 32°41' W 117°14'3 6.6
2018-Jul-10 13:00N 32°38' W 117°13'2 4.4
2018-Jul-10 12:30N 32°38' W 117°16'3 5.6
2018-Jul-10 12:00N 32°40' W 117°18'3 6.1
2018-Jul-10 11:30N 32°43' W 117°20'3 6.2
2018-Jul-10 11:00N 32°45' W 117°23'3 6.3
2018-Jul-10 10:30N 32°47' W 117°25'  

Dump ship's entire track history